MBO weather

Mamburao Airport
Mindoro Occidental Province, Philippines

Public forecast

Using degrees Celsius for public forecast. Weather courtesy of forecast.io.

METAR (pilot weather report)

Closest report is Ninoy Aquino International Airport, 81.7 nm (151.4 km) NNE. Retrieved 2019/06/25 12:00 UTC (58 minutes ago):

RPLL 251200Z 19006KT 9000 -RA FEW020CB SCT022 OVC090 26/25 Q1009 RETS NOSIG RMK A2980 CB SE

TAF (pilot weather forecast)

Closest forecast is Ninoy Aquino International Airport, 81.7 nm (151.4 km) NNE. Retrieved 2019/06/25 12:00 UTC (58 minutes ago):

TAF RPLL 251100Z 2512/2618 25010KT 9999 FEW025 SCT100 BKN290 TX34/2606Z TN27/2521Z TEMPO 2512/2518 24008KT 8000 -TSRA FEW020CB SCT023 OVC090 TEMPO 2518/2524 23005KT 8000 -TSRA FEW020CB SCT023 BKN090